sensor_id;sensor_type;location;lat;lon;timestamp;pressure;altitude;pressure_sealevel;temperature
45701;BMP280;36277;32.852;-116.998;2023-06-14T00:02:14;100030.16;;;25.94
45701;BMP280;36277;32.852;-116.998;2023-06-14T00:04:41;100026.53;;;26.00
45701;BMP280;36277;32.852;-116.998;2023-06-14T00:07:09;100029.53;;;26.05
45701;BMP280;36277;32.852;-116.998;2023-06-14T00:09:35;100027.44;;;26.14
45701;BMP280;36277;32.852;-116.998;2023-06-14T00:12:02;100020.28;;;25.79
45701;BMP280;36277;32.852;-116.998;2023-06-14T00:14:28;100020.31;;;25.38
45701;BMP280;36277;32.852;-116.998;2023-06-14T00:16:54;100031.00;;;24.87
45701;BMP280;36277;32.852;-116.998;2023-06-14T00:19:26;100025.22;;;24.54
45701;BMP280;36277;32.852;-116.998;2023-06-14T00:21:52;100027.06;;;24.75
45701;BMP280;36277;32.852;-116.998;2023-06-14T00:24:22;100024.06;;;24.97
45701;BMP280;36277;32.852;-116.998;2023-06-14T00:26:48;100020.13;;;25.13
45701;BMP280;36277;32.852;-116.998;2023-06-14T00:29:15;100019.84;;;25.28
45701;BMP280;36277;32.852;-116.998;2023-06-14T00:31:41;100011.81;;;25.40
45701;BMP280;36277;32.852;-116.998;2023-06-14T00:34:07;100014.84;;;25.51
45701;BMP280;36277;32.852;-116.998;2023-06-14T00:36:35;100005.97;;;25.62
45701;BMP280;36277;32.852;-116.998;2023-06-14T00:39:01;100012.81;;;25.73
45701;BMP280;36277;32.852;-116.998;2023-06-14T00:41:29;100015.22;;;25.82
45701;BMP280;36277;32.852;-116.998;2023-06-14T00:43:55;100007.81;;;25.89
45701;BMP280;36277;32.852;-116.998;2023-06-14T00:46:22;100003.16;;;25.96
45701;BMP280;36277;32.852;-116.998;2023-06-14T00:48:49;100011.66;;;26.01
45701;BMP280;36277;32.852;-116.998;2023-06-14T00:51:15;100007.22;;;26.07
45701;BMP280;36277;32.852;-116.998;2023-06-14T00:53:41;100001.06;;;26.11
45701;BMP280;36277;32.852;-116.998;2023-06-14T00:56:14;100000.16;;;25.85
45701;BMP280;36277;32.852;-116.998;2023-06-14T00:58:41;99998.13;;;25.26
45701;BMP280;36277;32.852;-116.998;2023-06-14T01:01:08;99997.47;;;24.90
45701;BMP280;36277;32.852;-116.998;2023-06-14T01:03:34;99997.06;;;24.44
45701;BMP280;36277;32.852;-116.998;2023-06-14T01:08:51;99994.78;;;25.03
45701;BMP280;36277;32.852;-116.998;2023-06-14T01:11:28;99992.81;;;25.18
45701;BMP280;36277;32.852;-116.998;2023-06-14T01:13:57;99980.97;;;25.30
45701;BMP280;36277;32.852;-116.998;2023-06-14T01:16:26;99980.59;;;25.39
45701;BMP280;36277;32.852;-116.998;2023-06-14T01:18:52;99974.66;;;25.49
45701;BMP280;36277;32.852;-116.998;2023-06-14T01:21:23;99975.34;;;25.57
45701;BMP280;36277;32.852;-116.998;2023-06-14T01:23:50;99976.22;;;25.64
45701;BMP280;36277;32.852;-116.998;2023-06-14T01:26:23;99983.28;;;25.73
45701;BMP280;36277;32.852;-116.998;2023-06-14T01:28:50;99979.69;;;25.79
45701;BMP280;36277;32.852;-116.998;2023-06-14T01:31:20;99984.41;;;25.85
45701;BMP280;36277;32.852;-116.998;2023-06-14T01:33:50;99983.56;;;25.91
45701;BMP280;36277;32.852;-116.998;2023-06-14T01:36:20;99983.38;;;25.99
45701;BMP280;36277;32.852;-116.998;2023-06-14T01:38:50;99981.88;;;26.03
45701;BMP280;36277;32.852;-116.998;2023-06-14T01:41:21;99983.47;;;25.78
45701;BMP280;36277;32.852;-116.998;2023-06-14T01:43:49;99984.13;;;25.27
45701;BMP280;36277;32.852;-116.998;2023-06-14T01:46:16;99989.56;;;24.80
45701;BMP280;36277;32.852;-116.998;2023-06-14T01:48:43;99991.09;;;24.62
45701;BMP280;36277;32.852;-116.998;2023-06-14T01:51:10;100001.69;;;24.86
45701;BMP280;36277;32.852;-116.998;2023-06-14T01:53:36;99998.59;;;25.02
45701;BMP280;36277;32.852;-116.998;2023-06-14T01:56:02;100000.22;;;25.17
45701;BMP280;36277;32.852;-116.998;2023-06-14T01:58:29;100002.00;;;25.31
45701;BMP280;36277;32.852;-116.998;2023-06-14T02:00:55;100006.28;;;25.40
45701;BMP280;36277;32.852;-116.998;2023-06-14T02:03:22;100012.53;;;25.48
45701;BMP280;36277;32.852;-116.998;2023-06-14T02:05:49;100006.16;;;25.54
45701;BMP280;36277;32.852;-116.998;2023-06-14T02:08:15;100013.63;;;25.60
45701;BMP280;36277;32.852;-116.998;2023-06-14T02:10:42;100010.88;;;25.67
45701;BMP280;36277;32.852;-116.998;2023-06-14T02:13:09;100016.44;;;25.73
45701;BMP280;36277;32.852;-116.998;2023-06-14T02:15:35;100013.25;;;25.76
45701;BMP280;36277;32.852;-116.998;2023-06-14T02:18:02;100008.84;;;25.82
45701;BMP280;36277;32.852;-116.998;2023-06-14T02:20:29;100012.03;;;25.85
45701;BMP280;36277;32.852;-116.998;2023-06-14T02:22:57;100012.69;;;25.87
45701;BMP280;36277;32.852;-116.998;2023-06-14T02:25:23;100003.97;;;25.90
45701;BMP280;36277;32.852;-116.998;2023-06-14T02:27:49;100015.47;;;25.94
45701;BMP280;36277;32.852;-116.998;2023-06-14T02:30:16;100014.22;;;25.96
45701;BMP280;36277;32.852;-116.998;2023-06-14T02:32:42;100007.41;;;25.99
45701;BMP280;36277;32.852;-116.998;2023-06-14T02:35:09;100008.88;;;26.01
45701;BMP280;36277;32.852;-116.998;2023-06-14T02:37:35;100000.41;;;26.03
45701;BMP280;36277;32.852;-116.998;2023-06-14T02:40:02;100005.69;;;25.98
45701;BMP280;36277;32.852;-116.998;2023-06-14T02:42:29;100002.94;;;25.91
45701;BMP280;36277;32.852;-116.998;2023-06-14T02:44:56;100006.09;;;25.82
45701;BMP280;36277;32.852;-116.998;2023-06-14T02:47:22;100009.00;;;25.74
45701;BMP280;36277;32.852;-116.998;2023-06-14T02:49:48;100004.75;;;25.71
45701;BMP280;36277;32.852;-116.998;2023-06-14T02:52:15;100013.69;;;25.73
45701;BMP280;36277;32.852;-116.998;2023-06-14T02:54:41;100012.81;;;25.73
45701;BMP280;36277;32.852;-116.998;2023-06-14T02:57:07;100018.78;;;25.76
45701;BMP280;36277;32.852;-116.998;2023-06-14T02:59:37;100029.47;;;25.79
45701;BMP280;36277;32.852;-116.998;2023-06-14T03:02:06;100030.09;;;25.81
45701;BMP280;36277;32.852;-116.998;2023-06-14T03:04:32;100028.63;;;25.85
45701;BMP280;36277;32.852;-116.998;2023-06-14T03:07:03;100029.28;;;25.87
45701;BMP280;36277;32.852;-116.998;2023-06-14T03:09:38;100036.09;;;25.91
45701;BMP280;36277;32.852;-116.998;2023-06-14T03:12:07;100036.75;;;25.93
45701;BMP280;36277;32.852;-116.998;2023-06-14T03:14:35;100038.00;;;25.91
45701;BMP280;36277;32.852;-116.998;2023-06-14T03:17:02;100042.06;;;25.95
45701;BMP280;36277;32.852;-116.998;2023-06-14T03:19:30;100044.63;;;25.96
45701;BMP280;36277;32.852;-116.998;2023-06-14T03:21:56;100048.25;;;25.97
45701;BMP280;36277;32.852;-116.998;2023-06-14T03:24:24;100053.59;;;25.98
45701;BMP280;36277;32.852;-116.998;2023-06-14T03:26:53;100050.59;;;26.00
45701;BMP280;36277;32.852;-116.998;2023-06-14T03:29:20;100058.66;;;26.01
45701;BMP280;36277;32.852;-116.998;2023-06-14T03:32:15;100049.53;;;26.01
45701;BMP280;36277;32.852;-116.998;2023-06-14T03:34:42;100058.91;;;26.00
45701;BMP280;36277;32.852;-116.998;2023-06-14T03:37:08;100055.72;;;26.03
45701;BMP280;36277;32.852;-116.998;2023-06-14T03:39:34;100053.78;;;26.03
45701;BMP280;36277;32.852;-116.998;2023-06-14T03:42:01;100056.38;;;26.05
45701;BMP280;36277;32.852;-116.998;2023-06-14T03:44:27;100057.59;;;26.02
45701;BMP280;36277;32.852;-116.998;2023-06-14T03:46:54;100064.19;;;26.01
45701;BMP280;36277;32.852;-116.998;2023-06-14T03:49:25;100068.00;;;25.94
45701;BMP280;36277;32.852;-116.998;2023-06-14T03:51:52;100079.47;;;25.91
45701;BMP280;36277;32.852;-116.998;2023-06-14T03:54:18;100080.34;;;25.85
45701;BMP280;36277;32.852;-116.998;2023-06-14T03:56:44;100082.25;;;25.91
45701;BMP280;36277;32.852;-116.998;2023-06-14T03:59:11;100081.00;;;25.93
45701;BMP280;36277;32.852;-116.998;2023-06-14T04:01:37;100090.28;;;25.79
45701;BMP280;36277;32.852;-116.998;2023-06-14T04:04:10;100087.03;;;25.69
45701;BMP280;36277;32.852;-116.998;2023-06-14T04:06:36;100101.66;;;25.63
45701;BMP280;36277;32.852;-116.998;2023-06-14T04:09:03;100095.25;;;25.63
45701;BMP280;36277;32.852;-116.998;2023-06-14T04:11:30;100095.06;;;25.64
45701;BMP280;36277;32.852;-116.998;2023-06-14T04:13:58;100096.81;;;25.72
45701;BMP280;36277;32.852;-116.998;2023-06-14T04:16:25;100091.72;;;25.75
45701;BMP280;36277;32.852;-116.998;2023-06-14T04:18:51;100106.00;;;25.79
45701;BMP280;36277;32.852;-116.998;2023-06-14T04:21:18;100105.63;;;25.82
45701;BMP280;36277;32.852;-116.998;2023-06-14T04:23:44;100101.41;;;25.86
45701;BMP280;36277;32.852;-116.998;2023-06-14T04:26:11;100088.41;;;25.86
45701;BMP280;36277;32.852;-116.998;2023-06-14T04:28:37;100096.06;;;25.91
45701;BMP280;36277;32.852;-116.998;2023-06-14T04:31:09;100103.13;;;25.93
45701;BMP280;36277;32.852;-116.998;2023-06-14T04:33:37;100106.72;;;25.94
45701;BMP280;36277;32.852;-116.998;2023-06-14T04:36:10;100118.44;;;25.96
45701;BMP280;36277;32.852;-116.998;2023-06-14T04:38:39;100126.56;;;25.97
45701;BMP280;36277;32.852;-116.998;2023-06-14T04:41:07;100119.97;;;25.98
45701;BMP280;36277;32.852;-116.998;2023-06-14T04:43:37;100121.03;;;25.97
45701;BMP280;36277;32.852;-116.998;2023-06-14T04:46:05;100117.19;;;25.98
45701;BMP280;36277;32.852;-116.998;2023-06-14T04:48:37;100128.03;;;26.00
45701;BMP280;36277;32.852;-116.998;2023-06-14T04:51:03;100126.09;;;26.00
45701;BMP280;36277;32.852;-116.998;2023-06-14T04:53:29;100123.34;;;26.00
45701;BMP280;36277;32.852;-116.998;2023-06-14T04:55:56;100133.34;;;26.01
45701;BMP280;36277;32.852;-116.998;2023-06-14T04:58:23;100128.88;;;26.00
45701;BMP280;36277;32.852;-116.998;2023-06-14T05:00:49;100128.03;;;26.00
45701;BMP280;36277;32.852;-116.998;2023-06-14T05:03:15;100127.81;;;26.01
45701;BMP280;36277;32.852;-116.998;2023-06-14T05:05:44;100120.38;;;26.02
45701;BMP280;36277;32.852;-116.998;2023-06-14T05:08:11;100115.69;;;26.02
45701;BMP280;36277;32.852;-116.998;2023-06-14T05:10:38;100098.25;;;26.02
45701;BMP280;36277;32.852;-116.998;2023-06-14T05:13:04;100106.56;;;26.02
45701;BMP280;36277;32.852;-116.998;2023-06-14T05:15:30;100101.03;;;26.02
45701;BMP280;36277;32.852;-116.998;2023-06-14T05:17:56;100102.72;;;26.03
45701;BMP280;36277;32.852;-116.998;2023-06-14T05:20:24;100099.75;;;26.04
45701;BMP280;36277;32.852;-116.998;2023-06-14T05:22:53;100090.38;;;26.05
45701;BMP280;36277;32.852;-116.998;2023-06-14T05:25:20;100096.34;;;26.02
45701;BMP280;36277;32.852;-116.998;2023-06-14T05:27:47;100087.84;;;26.04
45701;BMP280;36277;32.852;-116.998;2023-06-14T05:30:15;100079.72;;;26.02
45701;BMP280;36277;32.852;-116.998;2023-06-14T05:32:41;100082.50;;;26.02
45701;BMP280;36277;32.852;-116.998;2023-06-14T05:35:08;100078.69;;;26.03
45701;BMP280;36277;32.852;-116.998;2023-06-14T05:37:34;100086.78;;;25.98
45701;BMP280;36277;32.852;-116.998;2023-06-14T05:40:01;100089.06;;;25.95
45701;BMP280;36277;32.852;-116.998;2023-06-14T05:42:30;100087.75;;;25.84
45701;BMP280;36277;32.852;-116.998;2023-06-14T05:44:56;100082.81;;;25.73
45701;BMP280;36277;32.852;-116.998;2023-06-14T05:47:22;100088.13;;;25.75
45701;BMP280;36277;32.852;-116.998;2023-06-14T05:49:51;100093.22;;;25.78
45701;BMP280;36277;32.852;-116.998;2023-06-14T05:52:18;100095.81;;;25.79
45701;BMP280;36277;32.852;-116.998;2023-06-14T05:54:44;100092.00;;;25.80
45701;BMP280;36277;32.852;-116.998;2023-06-14T05:57:10;100086.28;;;25.82
45701;BMP280;36277;32.852;-116.998;2023-06-14T05:59:37;100084.34;;;25.82
45701;BMP280;36277;32.852;-116.998;2023-06-14T06:02:03;100086.06;;;25.83
45701;BMP280;36277;32.852;-116.998;2023-06-14T06:04:30;100084.16;;;25.84
45701;BMP280;36277;32.852;-116.998;2023-06-14T06:06:57;100090.75;;;25.83
45701;BMP280;36277;32.852;-116.998;2023-06-14T06:09:23;100076.06;;;25.82
45701;BMP280;36277;32.852;-116.998;2023-06-14T06:11:49;100068.63;;;25.83
45701;BMP280;36277;32.852;-116.998;2023-06-14T06:14:16;100070.34;;;25.84
45701;BMP280;36277;32.852;-116.998;2023-06-14T06:16:42;100066.91;;;25.82
45701;BMP280;36277;32.852;-116.998;2023-06-14T06:19:08;100064.34;;;25.80
45701;BMP280;36277;32.852;-116.998;2023-06-14T06:21:34;100057.47;;;25.70
45701;BMP280;36277;32.852;-116.998;2023-06-14T06:24:01;100053.22;;;25.67
45701;BMP280;36277;32.852;-116.998;2023-06-14T06:26:29;100057.00;;;25.60
45701;BMP280;36277;32.852;-116.998;2023-06-14T06:28:55;100051.81;;;25.50
45701;BMP280;36277;32.852;-116.998;2023-06-14T06:31:23;100051.81;;;25.50
45701;BMP280;36277;32.852;-116.998;2023-06-14T06:33:49;100047.94;;;25.38
45701;BMP280;36277;32.852;-116.998;2023-06-14T06:36:16;100052.72;;;25.24
45701;BMP280;36277;32.852;-116.998;2023-06-14T06:38:42;100040.34;;;24.86
45701;BMP280;36277;32.852;-116.998;2023-06-14T06:41:08;100051.03;;;24.68
45701;BMP280;36277;32.852;-116.998;2023-06-14T06:43:35;100050.44;;;24.51
45701;BMP280;36277;32.852;-116.998;2023-06-14T06:46:01;100048.50;;;24.31
45701;BMP280;36277;32.852;-116.998;2023-06-14T06:48:27;100052.00;;;24.18
45701;BMP280;36277;32.852;-116.998;2023-06-14T06:50:54;100053.59;;;24.27
45701;BMP280;36277;32.852;-116.998;2023-06-14T06:53:21;100055.34;;;24.35
45701;BMP280;36277;32.852;-116.998;2023-06-14T06:55:48;100043.53;;;24.41
45701;BMP280;36277;32.852;-116.998;2023-06-14T06:58:14;100039.13;;;24.46
45701;BMP280;36277;32.852;-116.998;2023-06-14T07:00:41;100049.84;;;24.35
45701;BMP280;36277;32.852;-116.998;2023-06-14T07:03:07;100037.88;;;24.28
45701;BMP280;36277;32.852;-116.998;2023-06-14T07:05:34;100037.28;;;24.12
45701;BMP280;36277;32.852;-116.998;2023-06-14T07:08:00;100029.19;;;23.89
45701;BMP280;36277;32.852;-116.998;2023-06-14T07:10:26;100034.22;;;23.86
45701;BMP280;36277;32.852;-116.998;2023-06-14T07:12:55;100026.06;;;23.92
45701;BMP280;36277;32.852;-116.998;2023-06-14T07:15:22;100029.25;;;23.96
45701;BMP280;36277;32.852;-116.998;2023-06-14T07:17:48;100033.50;;;23.98
45701;BMP280;36277;32.852;-116.998;2023-06-14T07:20:14;100032.56;;;24.06
45701;BMP280;36277;32.852;-116.998;2023-06-14T07:22:44;100029.22;;;24.10
45701;BMP280;36277;32.852;-116.998;2023-06-14T07:25:14;100032.69;;;24.18
45701;BMP280;36277;32.852;-116.998;2023-06-14T07:27:41;100033.78;;;24.24
45701;BMP280;36277;32.852;-116.998;2023-06-14T07:30:09;100024.09;;;24.28
45701;BMP280;36277;32.852;-116.998;2023-06-14T07:32:36;100020.53;;;24.34
45701;BMP280;36277;32.852;-116.998;2023-06-14T07:35:03;100020.97;;;24.37
45701;BMP280;36277;32.852;-116.998;2023-06-14T07:37:29;100014.91;;;24.42
45701;BMP280;36277;32.852;-116.998;2023-06-14T07:39:56;100019.16;;;24.44
45701;BMP280;36277;32.852;-116.998;2023-06-14T07:42:22;100013.28;;;24.47
45701;BMP280;36277;32.852;-116.998;2023-06-14T07:44:49;100018.56;;;24.49
45701;BMP280;36277;32.852;-116.998;2023-06-14T07:47:16;99997.81;;;24.32
45701;BMP280;36277;32.852;-116.998;2023-06-14T07:49:42;100002.22;;;24.26
45701;BMP280;36277;32.852;-116.998;2023-06-14T07:52:14;99996.97;;;24.11
45701;BMP280;36277;32.852;-116.998;2023-06-14T07:54:45;99992.88;;;23.86
45701;BMP280;36277;32.852;-116.998;2023-06-14T07:57:14;99999.91;;;23.88
45701;BMP280;36277;32.852;-116.998;2023-06-14T07:59:41;99995.34;;;23.95
45701;BMP280;36277;32.852;-116.998;2023-06-14T08:02:07;99997.69;;;23.98
45701;BMP280;36277;32.852;-116.998;2023-06-14T08:04:33;99999.22;;;24.01
45701;BMP280;36277;32.852;-116.998;2023-06-14T08:07:00;99992.25;;;24.05
45701;BMP280;36277;32.852;-116.998;2023-06-14T08:09:26;99986.13;;;24.09
45701;BMP280;36277;32.852;-116.998;2023-06-14T08:14:20;99993.91;;;24.20
45701;BMP280;36277;32.852;-116.998;2023-06-14T08:16:47;99989.66;;;24.24
45701;BMP280;36277;32.852;-116.998;2023-06-14T08:19:13;99996.50;;;24.28
45701;BMP280;36277;32.852;-116.998;2023-06-14T08:21:40;99985.94;;;24.31
45701;BMP280;36277;32.852;-116.998;2023-06-14T08:24:06;99991.03;;;24.34
45701;BMP280;36277;32.852;-116.998;2023-06-14T08:26:33;99984.28;;;24.37
45701;BMP280;36277;32.852;-116.998;2023-06-14T08:28:59;99993.22;;;24.39
45701;BMP280;36277;32.852;-116.998;2023-06-14T08:31:25;99984.72;;;24.40
45701;BMP280;36277;32.852;-116.998;2023-06-14T08:33:53;99981.78;;;24.42
45701;BMP280;36277;32.852;-116.998;2023-06-14T08:36:28;99983.03;;;24.39
45701;BMP280;36277;32.852;-116.998;2023-06-14T08:38:54;99985.59;;;24.41
45701;BMP280;36277;32.852;-116.998;2023-06-14T08:41:22;99984.34;;;24.43
45701;BMP280;36277;32.852;-116.998;2023-06-14T08:43:51;99977.97;;;24.43
45701;BMP280;36277;32.852;-116.998;2023-06-14T08:46:18;99978.81;;;24.43
45701;BMP280;36277;32.852;-116.998;2023-06-14T08:48:55;99971.41;;;24.44
45701;BMP280;36277;32.852;-116.998;2023-06-14T08:51:25;99978.63;;;24.45
45701;BMP280;36277;32.852;-116.998;2023-06-14T08:54:00;99975.00;;;24.44
45701;BMP280;36277;32.852;-116.998;2023-06-14T08:56:31;99974.34;;;24.42
45701;BMP280;36277;32.852;-116.998;2023-06-14T08:59:00;99966.09;;;24.21
45701;BMP280;36277;32.852;-116.998;2023-06-14T09:01:35;99962.44;;;23.94
45701;BMP280;36277;32.852;-116.998;2023-06-14T09:04:02;99967.63;;;23.82
45701;BMP280;36277;32.852;-116.998;2023-06-14T09:06:31;99974.06;;;23.89
45701;BMP280;36277;32.852;-116.998;2023-06-14T09:08:58;99966.06;;;23.94
45701;BMP280;36277;32.852;-116.998;2023-06-14T09:11:25;99971.16;;;23.97
45701;BMP280;36277;32.852;-116.998;2023-06-14T09:13:54;99964.22;;;24.01
45701;BMP280;36277;32.852;-116.998;2023-06-14T09:16:20;99963.81;;;24.04
45701;BMP280;36277;32.852;-116.998;2023-06-14T09:18:47;99956.84;;;24.08
45701;BMP280;36277;32.852;-116.998;2023-06-14T09:21:16;99951.78;;;24.12
45701;BMP280;36277;32.852;-116.998;2023-06-14T09:23:46;99953.31;;;24.14
45701;BMP280;36277;32.852;-116.998;2023-06-14T09:26:23;99951.88;;;24.18
45701;BMP280;36277;32.852;-116.998;2023-06-14T09:28:50;99951.00;;;24.17
45701;BMP280;36277;32.852;-116.998;2023-06-14T09:31:18;99955.28;;;24.20
45701;BMP280;36277;32.852;-116.998;2023-06-14T09:33:47;99947.63;;;24.22
45701;BMP280;36277;32.852;-116.998;2023-06-14T09:36:17;99937.28;;;24.24
45701;BMP280;36277;32.852;-116.998;2023-06-14T09:38:58;99934.31;;;24.25
45701;BMP280;36277;32.852;-116.998;2023-06-14T09:43:59;99940.03;;;24.24
45701;BMP280;36277;32.852;-116.998;2023-06-14T09:46:30;99938.56;;;24.28
45701;BMP280;36277;32.852;-116.998;2023-06-14T09:49:00;99929.25;;;24.29
45701;BMP280;36277;32.852;-116.998;2023-06-14T09:51:28;99937.34;;;24.30
45701;BMP280;36277;32.852;-116.998;2023-06-14T09:54:02;99928.84;;;24.32
45701;BMP280;36277;32.852;-116.998;2023-06-14T09:56:37;99932.50;;;24.32
45701;BMP280;36277;32.852;-116.998;2023-06-14T09:59:05;99932.28;;;24.34
45701;BMP280;36277;32.852;-116.998;2023-06-14T10:01:36;99932.06;;;24.35
45701;BMP280;36277;32.852;-116.998;2023-06-14T10:04:07;99931.22;;;24.35
45701;BMP280;36277;32.852;-116.998;2023-06-14T10:06:39;99939.75;;;24.40
45701;BMP280;36277;32.852;-116.998;2023-06-14T10:09:09;99934.25;;;24.40
45701;BMP280;36277;32.852;-116.998;2023-06-14T10:11:36;99946.31;;;24.39
45701;BMP280;36277;32.852;-116.998;2023-06-14T10:14:06;99949.75;;;24.41
45701;BMP280;36277;32.852;-116.998;2023-06-14T10:17:00;99953.16;;;24.43
45701;BMP280;36277;32.852;-116.998;2023-06-14T10:19:48;99955.91;;;24.43
45701;BMP280;36277;32.852;-116.998;2023-06-14T10:22:42;99946.59;;;24.44
45701;BMP280;36277;32.852;-116.998;2023-06-14T10:25:13;99938.31;;;24.44
45701;BMP280;36277;32.852;-116.998;2023-06-14T10:27:51;99940.19;;;24.43
45701;BMP280;36277;32.852;-116.998;2023-06-14T10:30:25;99935.81;;;24.49
45701;BMP280;36277;32.852;-116.998;2023-06-14T10:33:07;99938.56;;;24.49
45701;BMP280;36277;32.852;-116.998;2023-06-14T10:35:35;99943.59;;;24.45
45701;BMP280;36277;32.852;-116.998;2023-06-14T10:38:11;99940.94;;;24.52
45701;BMP280;36277;32.852;-116.998;2023-06-14T10:46:47;99940.44;;;24.21
45701;BMP280;36277;32.852;-116.998;2023-06-14T10:49:19;99950.56;;;24.14
45701;BMP280;36277;32.852;-116.998;2023-06-14T10:51:50;99958.50;;;24.03
45701;BMP280;36277;32.852;-116.998;2023-06-14T10:54:17;99949.84;;;24.06
45701;BMP280;36277;32.852;-116.998;2023-06-14T10:56:53;99952.44;;;24.13
45701;BMP280;36277;32.852;-116.998;2023-06-14T10:59:20;99945.06;;;24.14
45701;BMP280;36277;32.852;-116.998;2023-06-14T11:04:53;99951.06;;;24.24
45701;BMP280;36277;32.852;-116.998;2023-06-14T11:10:39;99959.16;;;24.25
45701;BMP280;36277;32.852;-116.998;2023-06-14T11:13:09;99961.31;;;24.30
45701;BMP280;36277;32.852;-116.998;2023-06-14T11:15:36;99962.81;;;24.32
45701;BMP280;36277;32.852;-116.998;2023-06-14T11:18:06;99963.28;;;24.36
45701;BMP280;36277;32.852;-116.998;2023-06-14T11:20:34;99967.72;;;24.37
45701;BMP280;36277;32.852;-116.998;2023-06-14T11:23:02;99957.75;;;24.36
45701;BMP280;36277;32.852;-116.998;2023-06-14T11:25:29;99955.25;;;24.41
45701;BMP280;36277;32.852;-116.998;2023-06-14T11:27:56;99948.69;;;24.42
45701;BMP280;36277;32.852;-116.998;2023-06-14T11:30:23;99954.19;;;24.42
45701;BMP280;36277;32.852;-116.998;2023-06-14T11:32:52;99952.94;;;24.44
45701;BMP280;36277;32.852;-116.998;2023-06-14T11:35:22;99943.59;;;24.45
45701;BMP280;36277;32.852;-116.998;2023-06-14T11:37:55;99948.81;;;24.34
45701;BMP280;36277;32.852;-116.998;2023-06-14T11:40:26;99953.97;;;24.16
45701;BMP280;36277;32.852;-116.998;2023-06-14T11:43:00;99942.69;;;23.90
45701;BMP280;36277;32.852;-116.998;2023-06-14T11:45:28;99945.38;;;23.84
45701;BMP280;36277;32.852;-116.998;2023-06-14T11:47:56;99939.28;;;23.88
45701;BMP280;36277;32.852;-116.998;2023-06-14T11:50:22;99936.78;;;23.93
45701;BMP280;36277;32.852;-116.998;2023-06-14T11:52:56;99944.91;;;24.01
45701;BMP280;36277;32.852;-116.998;2023-06-14T11:55:24;99937.28;;;24.03
45701;BMP280;36277;32.852;-116.998;2023-06-14T11:57:50;99943.28;;;24.07
45701;BMP280;36277;32.852;-116.998;2023-06-14T12:00:22;99952.19;;;24.09
45701;BMP280;36277;32.852;-116.998;2023-06-14T12:02:54;99940.59;;;24.13
45701;BMP280;36277;32.852;-116.998;2023-06-14T12:05:24;99940.59;;;24.13
45701;BMP280;36277;32.852;-116.998;2023-06-14T12:08:01;99938.09;;;24.18
45701;BMP280;36277;32.852;-116.998;2023-06-14T12:10:29;99935.34;;;24.18
45701;BMP280;36277;32.852;-116.998;2023-06-14T12:12:59;99943.22;;;24.21
45701;BMP280;36277;32.852;-116.998;2023-06-14T12:15:28;99947.63;;;24.22
45701;BMP280;36277;32.852;-116.998;2023-06-14T12:17:58;99947.63;;;24.22
45701;BMP280;36277;32.852;-116.998;2023-06-14T12:20:29;99949.81;;;24.26
45701;BMP280;36277;32.852;-116.998;2023-06-14T12:22:59;99946.41;;;24.24
45701;BMP280;36277;32.852;-116.998;2023-06-14T12:25:34;99951.53;;;24.27
45701;BMP280;36277;32.852;-116.998;2023-06-14T12:28:07;99948.56;;;24.29
45701;BMP280;36277;32.852;-116.998;2023-06-14T12:30:34;99949.63;;;24.28
45701;BMP280;36277;32.852;-116.998;2023-06-14T12:33:05;99948.16;;;24.32
45701;BMP280;36277;32.852;-116.998;2023-06-14T12:35:31;99947.34;;;24.31
45701;BMP280;36277;32.852;-116.998;2023-06-14T12:37:58;99951.97;;;24.31
45701;BMP280;36277;32.852;-116.998;2023-06-14T12:40:24;99950.91;;;24.32
45701;BMP280;36277;32.852;-116.998;2023-06-14T12:42:50;99958.34;;;24.31
45701;BMP280;36277;32.852;-116.998;2023-06-14T12:45:16;99960.91;;;24.33
45701;BMP280;36277;32.852;-116.998;2023-06-14T12:47:50;99960.50;;;24.36
45701;BMP280;36277;32.852;-116.998;2023-06-14T12:50:17;99959.84;;;24.34
45701;BMP280;36277;32.852;-116.998;2023-06-14T12:52:43;99961.34;;;24.36
45701;BMP280;36277;32.852;-116.998;2023-06-14T12:55:10;99956.69;;;24.37
45701;BMP280;36277;32.852;-116.998;2023-06-14T12:57:36;99960.13;;;24.39
45701;BMP280;36277;32.852;-116.998;2023-06-14T13:00:04;99972.00;;;24.39
45701;BMP280;36277;32.852;-116.998;2023-06-14T13:02:31;99963.94;;;24.38
45701;BMP280;36277;32.852;-116.998;2023-06-14T13:04:57;99969.44;;;24.38
45701;BMP280;36277;32.852;-116.998;2023-06-14T13:07:24;99965.00;;;24.16
45701;BMP280;36277;32.852;-116.998;2023-06-14T13:09:50;99964.63;;;24.19
45701;BMP280;36277;32.852;-116.998;2023-06-14T13:12:17;99966.75;;;24.23
45701;BMP280;36277;32.852;-116.998;2023-06-14T13:14:43;99967.59;;;24.24
45701;BMP280;36277;32.852;-116.998;2023-06-14T13:17:15;99975.31;;;24.28
45701;BMP280;36277;32.852;-116.998;2023-06-14T13:19:45;99972.72;;;24.27
45701;BMP280;36277;32.852;-116.998;2023-06-14T13:22:11;99974.03;;;24.31
45701;BMP280;36277;32.852;-116.998;2023-06-14T13:24:37;99980.22;;;24.33
45701;BMP280;36277;32.852;-116.998;2023-06-14T13:27:04;99963.00;;;24.31
45701;BMP280;36277;32.852;-116.998;2023-06-14T13:29:31;99970.22;;;24.32
45701;BMP280;36277;32.852;-116.998;2023-06-14T13:31:58;99975.56;;;24.33
45701;BMP280;36277;32.852;-116.998;2023-06-14T13:34:25;99975.34;;;24.35
45701;BMP280;36277;32.852;-116.998;2023-06-14T13:36:51;99982.75;;;24.34
45701;BMP280;36277;32.852;-116.998;2023-06-14T13:39:18;99982.56;;;24.36
45701;BMP280;36277;32.852;-116.998;2023-06-14T13:41:44;99986.84;;;24.38
45701;BMP280;36277;32.852;-116.998;2023-06-14T13:44:10;99985.78;;;24.39
45701;BMP280;36277;32.852;-116.998;2023-06-14T13:46:40;99985.22;;;24.44
45701;BMP280;36277;32.852;-116.998;2023-06-14T13:49:08;99986.25;;;24.43
45701;BMP280;36277;32.852;-116.998;2023-06-14T13:51:35;99993.47;;;24.44
45701;BMP280;36277;32.852;-116.998;2023-06-14T13:54:02;99998.13;;;24.43